Time;durP1;ratioP1;P1;durP2;ratioP2;P2;SDS_P1;SDS_P2;PMS_P1;PMS_P2;Temp;Humidity;BMP_temperature;BMP_pressure;BME280_temperature;BME280_humidity;BME280_pressure;Samples;Min_cycle;Max_cycle;Signal;HPM_P1;HPM_P2
2023/09/29 00:00:46;;;;;;;;;;;;;;;21.91;58.62;100608.22;4989112;28;6827;-86
2023/09/29 00:03:18;;;;;;;;;;;;;;;21.98;58.79;100609.16;4989948;28;7028;-85
2023/09/29 00:05:55;;;;;;;;;;;;;;;22.04;58.90;100609.16;4971595;28;7190;-86
2023/09/29 00:08:27;;;;;;;;;;;;;;;22.10;58.93;100608.31;4978972;28;6850;-86
2023/09/29 00:13:53;;;;;;;;;;;;;;;22.17;58.40;100600.53;4989234;28;7398;-85
2023/09/29 00:16:37;;;;;;;;;;;;;;;22.22;58.59;100603.16;4987243;28;7078;-86
2023/09/29 00:19:34;;;;;;;;;;;;;;;22.26;58.42;100604.00;4968821;28;7000;-86
2023/09/29 00:25:21;;;;;;;;;;;;;;;22.23;58.34;100599.66;4984930;28;7282;-85
2023/09/29 00:35:23;;;;;;;;;;;;;;;;;;;;;
2023/09/29 00:48:42;;;;;;;;;;;;;;;22.16;58.38;100579.63;5026907;23;6992;-74
2023/09/29 00:51:08;;;;;;;;;;;;;;;22.19;58.21;100582.22;4996581;28;6938;-74
2023/09/29 00:53:34;;;;;;;;;;;;;;;22.22;58.14;100576.16;5002903;28;6944;-74
2023/09/29 00:56:02;;;;;;;;;;;;;;;22.26;58.19;100572.66;5003611;28;7012;-74
2023/09/29 00:58:28;;;;;;;;;;;;;;;22.31;58.04;100569.22;4987305;28;7323;-74
2023/09/29 01:00:53;;;;;;;;;;;;;;;22.36;58.15;100560.53;4997824;28;6981;-73
2023/09/29 01:03:19;;;;;;;;;;;;;;;22.40;58.35;100559.66;4987722;28;7137;-74
2023/09/29 01:05:48;;;;;;;;;;;;;;;22.44;58.17;100561.41;5010319;28;6917;-74
2023/09/29 01:08:20;;;;;;;;;;;;;;;22.48;57.92;100565.75;5014157;28;7224;-74
2023/09/29 01:10:45;;;;;;;;;;;;;;;22.50;58.31;100561.44;5021582;28;6799;-74
2023/09/29 01:13:12;;;;;;;;;;;;;;;22.55;58.07;100564.94;5022258;28;7191;-74
2023/09/29 01:15:39;;;;;;;;;;;;;;;22.59;57.73;100568.41;5003666;28;6989;-74
2023/09/29 01:18:06;;;;;;;;;;;;;;;22.59;57.74;100564.06;5018221;28;7290;-74
2023/09/29 01:20:32;;;;;;;;;;;;;;;22.63;57.94;100559.72;5024803;28;7299;-74
2023/09/29 01:23:00;;;;;;;;;;;;;;;22.64;57.44;100557.97;5002711;28;7004;-74
2023/09/29 01:25:27;;;;;;;;;;;;;;;22.65;57.73;100552.75;5018887;28;6983;-74
2023/09/29 01:27:54;;;;;;;;;;;;;;;22.66;57.46;100551.00;5002223;28;7107;-74
2023/09/29 01:30:20;;;;;;;;;;;;;;;22.67;57.46;100547.53;5022410;28;6827;-74
2023/09/29 01:32:51;;;;;;;;;;;;;;;22.67;57.40;100544.91;5002421;28;6783;-74
2023/09/29 01:35:17;;;;;;;;;;;;;;;22.66;57.33;100533.59;5004372;28;6811;-74
2023/09/29 01:37:46;;;;;;;;;;;;;;;22.65;57.69;100539.72;5022068;28;7367;-74
2023/09/29 01:40:12;;;;;;;;;;;;;;;22.63;57.74;100541.41;5021246;28;7851;-73
2023/09/29 01:42:39;;;;;;;;;;;;;;;22.60;57.65;100544.94;5000022;28;6812;-74
2023/09/29 01:45:07;;;;;;;;;;;;;;;22.59;57.44;100548.38;5003003;28;7011;-73
2023/09/29 01:47:35;;;;;;;;;;;;;;;22.58;57.32;100544.03;4999628;28;7086;-73
2023/09/29 01:50:00;;;;;;;;;;;;;;;22.59;57.70;100532.72;5022501;28;7029;-73
2023/09/29 01:52:26;;;;;;;;;;;;;;;22.60;57.67;100531.88;4998902;28;6796;-73
2023/09/29 01:54:51;;;;;;;;;;;;;;;22.60;57.88;100521.41;5008298;28;6780;-73
2023/09/29 01:57:17;;;;;;;;;;;;;;;22.61;57.74;100531.00;5000824;28;6833;-73
2023/09/29 01:59:43;;;;;;;;;;;;;;;22.63;57.93;100535.34;5003786;28;7984;-73
2023/09/29 02:02:08;;;;;;;;;;;;;;;22.63;57.86;100524.91;4995446;28;6944;-73
2023/09/29 02:04:34;;;;;;;;;;;;;;;22.60;57.50;100518.81;5020471;28;7045;-73
2023/09/29 02:07:00;;;;;;;;;;;;;;;22.59;57.83;100524.88;5022432;28;7033;-73
2023/09/29 02:09:26;;;;;;;;;;;;;;;22.59;57.82;100521.41;5020172;28;7250;-73
2023/09/29 02:11:54;;;;;;;;;;;;;;;22.54;57.50;100516.19;4979233;28;7024;-73
2023/09/29 02:14:20;;;;;;;;;;;;;;;22.54;58.03;100525.75;5001870;28;6811;-73
2023/09/29 02:16:48;;;;;;;;;;;;;;;22.52;57.79;100523.16;5014765;28;6779;-73
2023/09/29 02:19:14;;;;;;;;;;;;;;;22.50;57.54;100524.03;5005388;28;7019;-73
2023/09/29 02:21:41;;;;;;;;;;;;;;;22.48;58.00;100510.91;5024101;28;7402;-73
2023/09/29 02:24:07;;;;;;;;;;;;;;;22.44;57.66;100511.81;5021143;28;7122;-73
2023/09/29 02:26:34;;;;;;;;;;;;;;;22.43;57.74;100512.66;5020958;28;6792;-73
2023/09/29 02:29:01;;;;;;;;;;;;;;;22.42;57.91;100503.09;5001034;28;6800;-73
2023/09/29 02:31:26;;;;;;;;;;;;;;;22.43;58.02;100499.63;5022788;28;6792;-73
2023/09/29 02:33:53;;;;;;;;;;;;;;;;;;4989865;28;6969;-73
2023/09/29 02:36:19;;;;;;;;;;;;;;;22.49;58.46;100483.97;5000257;28;7015;-73
2023/09/29 02:38:45;;;;;;;;;;;;;;;22.53;58.53;100490.06;5025278;28;6884;-73
2023/09/29 02:41:10;;;;;;;;;;;;;;;22.57;58.53;100484.84;5020719;28;6792;-73
2023/09/29 02:43:36;;;;;;;;;;;;;;;22.59;58.43;100479.63;5001668;28;6875;-73
2023/09/29 02:46:02;;;;;;;;;;;;;;;22.61;57.72;100478.75;5022072;28;7227;-73
2023/09/29 02:48:27;;;;;;;;;;;;;;;22.61;58.15;100476.16;5006113;28;6935;-73
2023/09/29 02:50:53;;;;;;;;;;;;;;;22.63;57.96;100475.28;5019858;28;6995;-73
2023/09/29 02:53:19;;;;;;;;;;;;;;;22.62;58.06;100474.38;5020865;28;6943;-73
2023/09/29 02:55:45;;;;;;;;;;;;;;;22.63;57.89;100470.06;5022398;28;6879;-73
2023/09/29 02:58:11;;;;;;;;;;;;;;;22.62;57.49;100469.16;5021867;28;6852;-73
2023/09/29 03:00:37;;;;;;;;;;;;;;;22.63;57.54;100468.28;5019847;28;6784;-73
2023/09/29 03:03:05;;;;;;;;;;;;;;;22.63;58.26;100459.59;5016139;28;6832;-73
2023/09/29 03:05:30;;;;;;;;;;;;;;;22.64;57.76;100458.72;5018755;28;6804;-73
2023/09/29 03:07:56;;;;;;;;;;;;;;;22.65;58.24;100461.34;5020587;28;6906;-73
2023/09/29 03:10:25;;;;;;;;;;;;;;;22.66;58.33;100459.59;5019292;28;6989;-73
2023/09/29 03:12:53;;;;;;;;;;;;;;;22.67;58.03;100453.50;4999452;28;7001;-73
2023/09/29 03:15:21;;;;;;;;;;;;;;;22.70;58.06;100456.13;5022288;28;6926;-73
2023/09/29 03:17:47;;;;;;;;;;;;;;;22.73;58.14;100453.50;5000282;28;6993;-73
2023/09/29 03:20:13;;;;;;;;;;;;;;;22.75;58.38;100460.47;4975293;28;6940;-73
2023/09/29 03:22:40;;;;;;;;;;;;;;;22.79;58.20;100450.00;4993897;28;8812;-73
2023/09/29 03:25:06;;;;;;;;;;;;;;;22.81;58.03;100451.75;4999404;28;7223;-73
2023/09/29 03:27:34;;;;;;;;;;;;;;;22.83;57.93;100442.16;4998887;28;6936;-73
2023/09/29 03:30:00;;;;;;;;;;;;;;;22.86;57.61;100442.13;5014309;28;7781;-73
2023/09/29 03:32:26;;;;;;;;;;;;;;;22.89;57.70;100447.38;5019693;28;6976;-73
2023/09/29 03:34:52;;;;;;;;;;;;;;;22.93;57.62;100452.59;5004360;28;7000;-73
2023/09/29 03:37:19;;;;;;;;;;;;;;;22.93;57.97;100450.81;5034374;23;7241;-75
2023/09/29 03:39:44;;;;;;;;;;;;;;;22.94;57.35;100451.69;4944850;28;6816;-75
2023/09/29 03:42:11;;;;;;;;;;;;;;;22.95;57.37;100453.44;4961555;28;6800;-75
2023/09/29 03:44:36;;;;;;;;;;;;;;;22.93;57.23;100448.22;4964589;28;8301;-75
2023/09/29 03:47:02;;;;;;;;;;;;;;;22.92;57.20;100449.09;4972271;28;6788;-75
2023/09/29 03:49:30;;;;;;;;;;;;;;;22.93;57.22;100444.75;4938065;28;6944;-75
2023/09/29 03:51:56;;;;;;;;;;;;;;;22.91;57.62;100436.03;4943094;28;7225;-75
2023/09/29 03:54:21;;;;;;;;;;;;;;;22.81;57.60;100425.63;4920563;28;6985;-75
2023/09/29 03:56:47;;;;;;;;;;;;;;;22.65;57.66;100416.94;4970858;28;6796;-75
2023/09/29 03:59:12;;;;;;;;;;;;;;;22.51;57.82;100430.03;4959036;28;6978;-75
2023/09/29 04:01:37;;;;;;;;;;;;;;;22.38;58.66;100428.22;4962665;28;7908;-75
2023/09/29 04:04:03;;;;;;;;;;;;;;;22.32;58.74;100426.50;4967722;28;6796;-75
2023/09/29 04:06:29;;;;;;;;;;;;;;;22.27;59.17;100413.44;4967341;28;6976;-76
2023/09/29 04:08:55;;;;;;;;;;;;;;;22.25;59.07;100402.13;4968307;28;7007;-75
2023/09/29 04:11:21;;;;;;;;;;;;;;;22.26;58.98;100403.88;4967297;28;6937;-75
2023/09/29 04:13:46;;;;;;;;;;;;;;;22.25;58.87;100406.47;4970949;28;6940;-74
2023/09/29 04:16:14;;;;;;;;;;;;;;;22.26;59.08;100416.94;4988369;28;6925;-75
2023/09/29 04:18:39;;;;;;;;;;;;;;;22.28;59.44;100407.34;4978060;28;7910;-76
2023/09/29 04:21:12;;;;;;;;;;;;;;;22.28;59.20;100404.75;4979904;28;7021;-74
2023/09/29 04:23:37;;;;;;;;;;;;;;;22.30;59.12;100408.22;4954222;28;7004;-75
2023/09/29 04:26:03;;;;;;;;;;;;;;;22.33;58.77;100402.13;5002323;28;6887;-76
2023/09/29 04:28:28;;;;;;;;;;;;;;;22.35;59.28;100400.38;4971716;28;6800;-76
2023/09/29 04:30:54;;;;;;;;;;;;;;;22.41;59.06;100404.75;4965244;28;7209;-75
2023/09/29 04:33:19;;;;;;;;;;;;;;;22.42;59.31;100407.34;4985840;28;6772;-75
2023/09/29 04:35:44;;;;;;;;;;;;;;;22.45;59.05;100401.25;4971171;28;6900;-75
2023/09/29 04:38:10;;;;;;;;;;;;;;;22.48;58.97;100406.47;4991158;28;6794;-76
2023/09/29 04:43:12;;;;;;;;;;;;;;;22.52;58.92;100394.31;5466080;23;7203;-74
2023/09/29 04:45:37;;;;;;;;;;;;;;;22.55;58.97;100397.78;5014043;28;6780;-75
2023/09/29 04:48:03;;;;;;;;;;;;;;;22.59;58.49;100396.91;4986440;28;6784;-75
2023/09/29 04:50:29;;;;;;;;;;;;;;;22.61;58.68;100392.56;4987579;28;7153;-75
2023/09/29 05:03:16;;;;;;;;;;;;;;;22.71;58.78;100376.88;5070651;23;7553;-75
2023/09/29 05:05:42;;;;;;;;;;;;;;;22.72;58.27;100378.63;5016309;28;7227;-76
2023/09/29 05:08:07;;;;;;;;;;;;;;;22.72;58.50;100366.41;5046181;28;6807;-75
2023/09/29 05:10:33;;;;;;;;;;;;;;;22.73;58.09;100367.28;5011518;28;7379;-75
2023/09/29 05:12:58;;;;;;;;;;;;;;;22.74;58.21;100366.41;5043435;28;7306;-75
2023/09/29 05:15:24;;;;;;;;;;;;;;;22.75;58.57;100357.69;5042233;28;6855;-75
2023/09/29 05:17:50;;;;;;;;;;;;;;;22.78;58.25;100362.03;5047784;28;6784;-75
2023/09/29 05:20:15;;;;;;;;;;;;;;;22.80;58.67;100361.19;5050709;28;7223;-75
2023/09/29 05:22:41;;;;;;;;;;;;;;;22.81;58.39;100356.81;5033161;28;7158;-75
2023/09/29 06:19:29;;;;;;;;;;;;;;;23.03;58.13;100358.47;4894190;23;7148;-74
2023/09/29 06:24:29;;;;;;;;;;;;;;;23.03;57.89;100368.06;5588444;23;6830;-77
2023/09/29 06:26:55;;;;;;;;;;;;;;;23.05;58.05;100368.06;5023059;23;6995;-81
2023/09/29 06:29:21;;;;;;;;;;;;;;;23.09;57.86;100357.59;4939675;28;7375;-81
2023/09/29 06:31:49;;;;;;;;;;;;;;;23.17;57.81;100354.91;4957862;28;6943;-81
2023/09/29 06:34:15;;;;;;;;;;;;;;;23.26;58.13;100352.25;4962488;28;6885;-80
2023/09/29 06:36:43;;;;;;;;;;;;;;;23.37;58.41;100352.25;4947684;28;6965;-82
2023/09/29 06:39:09;;;;;;;;;;;;;;;23.48;58.17;100351.31;4961378;28;6994;-80
2023/09/29 06:41:34;;;;;;;;;;;;;;;23.60;57.75;100350.34;4947018;28;6962;-80
2023/09/29 06:44:00;;;;;;;;;;;;;;;23.72;57.80;100347.66;4934603;28;7215;-83
2023/09/29 06:46:26;;;;;;;;;;;;;;;23.82;58.20;100349.31;4942781;28;7153;-81
2023/09/29 06:48:53;;;;;;;;;;;;;;;23.93;57.47;100351.84;4930519;28;6948;-81
2023/09/29 06:51:18;;;;;;;;;;;;;;;24.02;57.31;100352.63;4945327;28;6836;-81
2023/09/29 06:53:44;;;;;;;;;;;;;;;24.12;57.31;100360.44;4938340;28;7038;-81
2023/09/29 06:56:11;;;;;;;;;;;;;;;24.24;56.78;100367.31;4961354;28;6951;-81
2023/09/29 06:58:37;;;;;;;;;;;;;;;24.31;56.95;100370.75;4960857;28;8128;-81
2023/09/29 07:01:03;;;;;;;;;;;;;;;24.36;56.75;100368.94;4959319;28;6955;-80
2023/09/29 07:03:33;;;;;;;;;;;;;;;24.43;56.85;100367.13;4929826;28;6959;-80
2023/09/29 07:06:02;;;;;;;;;;;;;;;24.51;56.25;100370.53;4933539;28;6975;-81
2023/09/29 07:08:28;;;;;;;;;;;;;;;24.58;56.05;100365.25;4949065;28;7046;-81
2023/09/29 07:10:55;;;;;;;;;;;;;;;24.66;56.55;100363.41;4943052;28;6868;-80
2023/09/29 07:13:20;;;;;;;;;;;;;;;24.78;56.33;100359.81;4949885;28;7002;-81
2023/09/29 07:15:46;;;;;;;;;;;;;;;24.86;55.68;100352.72;4940374;28;10025;-80
2023/09/29 07:18:12;;;;;;;;;;;;;;;24.93;55.28;100361.38;4934162;28;7233;-82
2023/09/29 07:20:52;;;;;;;;;;;;;;;24.94;55.42;100360.50;4948277;28;7032;-82
2023/09/29 07:23:19;;;;;;;;;;;;;;;24.89;54.87;100359.69;4934512;28;7013;-81
2023/09/29 07:25:47;;;;;;;;;;;;;;;24.88;55.18;100361.44;4951762;28;6849;-82
2023/09/29 07:28:14;;;;;;;;;;;;;;;24.89;54.90;100364.91;4950519;28;6982;-81
2023/09/29 07:30:44;;;;;;;;;;;;;;;24.98;55.18;100372.66;4932006;28;7007;-83
2023/09/29 07:33:10;;;;;;;;;;;;;;;25.12;55.01;100372.50;4944222;28;6808;-80
2023/09/29 07:35:36;;;;;;;;;;;;;;;25.33;55.35;100376.59;4933139;28;6835;-82
2023/09/29 07:38:04;;;;;;;;;;;;;;;25.54;54.96;100374.59;4962539;28;6976;-81
2023/09/29 07:40:30;;;;;;;;;;;;;;;25.69;54.37;100383.09;4948531;28;6852;-82
2023/09/29 07:42:56;;;;;;;;;;;;;;;25.74;54.19;100376.94;4989937;23;7039;-82
2023/09/29 07:45:21;;;;;;;;;;;;;;;25.77;53.68;100387.38;4955151;28;6999;-81
2023/09/29 07:47:47;;;;;;;;;;;;;;;25.75;53.34;100377.78;4952298;28;6966;-80
2023/09/29 08:04:59;;;;;;;;;;;;;;;25.85;53.38;100404.75;6150351;22;1998426;-90
2023/09/29 08:07:25;;;;;;;;;;;;;;;26.01;52.97;100394.88;6177919;23;6946;-88
2023/09/29 08:09:53;;;;;;;;;;;;;;;26.24;52.51;100405.03;6173143;23;7412;-87
2023/09/29 08:12:23;;;;;;;;;;;;;;;26.44;52.24;100417.78;6151261;23;7141;-85
2023/09/29 08:14:50;;;;;;;;;;;;;;;26.57;51.81;100404.47;6174558;23;6963;-85
2023/09/29 08:17:18;;;;;;;;;;;;;;;26.76;51.54;100413.72;6199068;23;7082;-85
2023/09/29 08:19:44;;;;;;;;;;;;;;;26.87;51.13;100417.91;6173206;23;6926;-85
2023/09/29 08:22:10;;;;;;;;;;;;;;;26.88;50.79;100424.94;6171070;23;6948;-87
2023/09/29 08:24:36;;;;;;;;;;;;;;;26.88;50.24;100422.31;6193326;23;8414;-86
2023/09/29 08:27:02;;;;;;;;;;;;;;;26.89;50.75;100429.28;6169566;23;7212;-88
2023/09/29 08:29:31;;;;;;;;;;;;;;;26.95;51.11;100428.28;6169056;23;7166;-88
2023/09/29 08:31:58;;;;;;;;;;;;;;;27.04;50.61;100441.25;6142910;23;6951;-89
2023/09/29 08:34:24;;;;;;;;;;;;;;;27.09;49.87;100441.16;6132015;23;7153;-86
2023/09/29 08:36:52;;;;;;;;;;;;;;;27.11;49.39;100436.75;6129050;23;6739;-88
2023/09/29 08:39:20;;;;;;;;;;;;;;;27.07;49.35;100446.44;6132755;23;6965;-85
2023/09/29 08:42:05;;;;;;;;;;;;;;;27.04;49.10;100441.25;6112359;23;7025;-87
2023/09/29 08:44:33;;;;;;;;;;;;;;;27.02;49.13;100443.06;6132489;23;6810;-90
2023/09/29 08:47:02;;;;;;;;;;;;;;;26.98;49.22;100449.25;6137929;23;6832;-91
2023/09/29 08:49:29;;;;;;;;;;;;;;;26.91;49.49;100456.41;6131428;23;7133;-86
2023/09/29 08:51:57;;;;;;;;;;;;;;;26.89;49.40;100458.22;6130156;23;6999;-88
2023/09/29 08:54:25;;;;;;;;;;;;;;;26.85;49.32;100451.25;6126568;23;6808;-88
2023/09/29 08:56:52;;;;;;;;;;;;;;;26.86;49.25;100460.88;6081821;23;6759;-87
2023/09/29 08:59:18;;;;;;;;;;;;;;;26.84;49.36;100463.53;6086434;23;6936;-85
2023/09/29 09:01:46;;;;;;;;;;;;;;;26.87;49.58;100454.72;6133141;23;6749;-86
2023/09/29 09:04:17;;;;;;;;;;;;;;;26.94;49.51;100456.34;6128495;23;7035;-81
2023/09/29 09:06:42;;;;;;;;;;;;;;;27.03;49.25;100465.84;6149506;23;7261;-82
2023/09/29 09:09:09;;;;;;;;;;;;;;;27.12;48.92;100472.66;6124962;23;8550;-83
2023/09/29 09:11:43;;;;;;;;;;;;;;;27.14;48.76;100469.09;6126154;23;7462;-84
2023/09/29 09:14:13;;;;;;;;;;;;;;;27.10;48.65;100472.72;6149450;23;6925;-81
2023/09/29 09:16:40;;;;;;;;;;;;;;;27.09;48.63;100472.72;6150671;23;7278;-83
2023/09/29 09:19:13;;;;;;;;;;;;;;;27.03;48.69;100482.47;6148506;23;6739;-81
2023/09/29 09:21:43;;;;;;;;;;;;;;;27.03;48.89;100492.97;6147266;23;6761;-82
2023/09/29 09:24:23;;;;;;;;;;;;;;;27.01;48.68;100488.66;6124712;23;8379;-81
2023/09/29 09:26:51;;;;;;;;;;;;;;;26.96;48.79;100491.38;6150499;23;8422;-81
2023/09/29 09:29:18;;;;;;;;;;;;;;;26.92;48.39;100494.09;6125451;23;7213;-80
2023/09/29 09:31:58;;;;;;;;;;;;;;;26.91;48.66;100490.59;6148031;23;7040;-82
2023/09/29 09:34:36;;;;;;;;;;;;;;;26.91;48.61;100501.09;6149045;23;6724;-82
2023/09/29 09:37:03;;;;;;;;;;;;;;;26.94;48.79;100505.44;6146594;23;6929;-82
2023/09/29 09:39:29;;;;;;;;;;;;;;;26.95;48.46;100502.81;6124827;23;8296;-81
2023/09/29 09:42:03;;;;;;;;;;;;;;;27.05;48.58;100508.75;6148138;23;7109;-83
2023/09/29 09:44:29;;;;;;;;;;;;;;;27.11;48.56;100505.13;6150407;23;6792;-80
2023/09/29 09:47:10;;;;;;;;;;;;;;;27.20;48.48;100518.09;6151251;23;6776;-81
2023/09/29 09:49:48;;;;;;;;;;;;;;;27.33;48.43;100515.22;6104691;23;6963;-82
2023/09/29 09:52:29;;;;;;;;;;;;;;;27.43;48.03;100508.91;6096009;23;6735;-81
2023/09/29 09:55:15;;;;;;;;;;;;;;;27.60;47.99;100508.56;6096273;23;7370;-83
2023/09/29 09:57:45;;;;;;;;;;;;;;;27.90;48.48;100513.16;6091782;23;6960;-82
2023/09/29 10:00:14;;;;;;;;;;;;;;;28.16;47.29;100509.06;6095977;23;6779;-82
2023/09/29 10:02:51;;;;;;;;;;;;;;;28.32;47.07;100513.13;6067368;23;11660;-82
2023/09/29 10:05:23;;;;;;;;;;;;;;;28.38;46.19;100514.72;6067422;23;6952;-82
2023/09/29 10:07:51;;;;;;;;;;;;;;;28.36;46.22;100506.84;6067153;23;6779;-82
2023/09/29 10:10:25;;;;;;;;;;;;;;;28.40;45.86;100513.81;6067275;23;7098;-82
2023/09/29 10:13:07;;;;;;;;;;;;;;;28.57;45.85;100511.66;6090663;23;6767;-83
2023/09/29 10:15:35;;;;;;;;;;;;;;;28.79;46.21;100517.22;6076258;23;7266;-87
2023/09/29 10:18:15;;;;;;;;;;;;;;;28.92;45.69;100517.78;6087604;23;6744;-88
2023/09/29 10:20:41;;;;;;;;;;;;;;;29.07;45.41;100519.13;6083015;23;7109;-75
2023/09/29 10:23:13;;;;;;;;;;;;;;;29.10;44.79;100525.19;6091576;23;6920;-75
2023/09/29 10:25:56;;;;;;;;;;;;;;;29.06;44.21;100520.03;6101434;23;6798;-75
2023/09/29 10:28:33;;;;;;;;;;;;;;;29.09;44.63;100530.53;6116846;23;7809;-74
2023/09/29 10:31:17;;;;;;;;;;;;;;;29.33;43.98;100533.38;6126488;23;7892;-74
2023/09/29 10:33:53;;;;;;;;;;;;;;;29.47;43.45;100522.47;6143071;23;6963;-74
2023/09/29 10:36:28;;;;;;;;;;;;;;;29.40;43.72;100537.59;6147436;23;6798;-74
2023/09/29 10:38:57;;;;;;;;;;;;;;;29.22;43.41;100537.19;6145031;23;7283;-74
2023/09/29 10:41:24;;;;;;;;;;;;;;;29.01;43.34;100545.69;6121701;23;7093;-74
2023/09/29 10:43:50;;;;;;;;;;;;;;;28.82;44.30;100540.88;6145409;23;7631;-74
2023/09/29 10:46:20;;;;;;;;;;;;;;;28.66;44.21;100543.03;6145743;23;6771;-74
2023/09/29 10:48:52;;;;;;;;;;;;;;;28.61;44.07;100552.81;6164703;23;8044;-74
2023/09/29 10:51:28;;;;;;;;;;;;;;;28.58;44.21;100551.13;6145152;23;7004;-74
2023/09/29 10:53:55;;;;;;;;;;;;;;;28.63;44.36;100551.00;6143401;23;7039;-74
2023/09/29 10:56:25;;;;;;;;;;;;;;;29.05;44.50;100555.25;6143813;23;6800;-75
2023/09/29 10:58:53;;;;;;;;;;;;;;;29.47;43.92;100557.66;6143701;23;8274;-74
2023/09/29 11:01:30;;;;;;;;;;;;;;;29.77;42.85;100551.50;6140764;23;6790;-74
2023/09/29 11:03:56;;;;;;;;;;;;;;;29.96;43.25;100559.75;6119919;23;6969;-75
2023/09/29 11:06:23;;;;;;;;;;;;;;;30.28;42.95;100555.25;6145155;23;6975;-75
2023/09/29 11:08:58;;;;;;;;;;;;;;;30.67;42.00;100547.88;6122530;23;7266;-74
2023/09/29 11:11:35;;;;;;;;;;;;;;;31.04;41.90;100543.94;6146976;23;6938;-74
2023/09/29 11:14:04;;;;;;;;;;;;;;;31.63;40.61;100546.25;6136891;23;7162;-75
2023/09/29 11:16:32;;;;;;;;;;;;;;;31.82;40.73;100547.31;6121562;23;7001;-75
2023/09/29 11:19:12;;;;;;;;;;;;;;;32.09;40.36;100563.03;6146949;23;6771;-75
2023/09/29 11:21:40;;;;;;;;;;;;;;;32.39;39.85;100561.91;6097922;23;7141;-75
2023/09/29 11:24:10;;;;;;;;;;;;;;;32.36;39.44;100560.22;6150253;23;6774;-74
2023/09/29 11:26:46;;;;;;;;;;;;;;;32.05;39.37;100564.09;6171845;23;7155;-75
2023/09/29 11:29:23;;;;;;;;;;;;;;;31.58;39.24;100560.53;6175052;23;7257;-75
2023/09/29 11:31:51;;;;;;;;;;;;;;;31.11;40.06;100560.47;6121308;23;6938;-76
2023/09/29 11:34:17;;;;;;;;;;;;;;;30.59;39.76;100567.47;6170646;23;6771;-75
2023/09/29 11:36:43;;;;;;;;;;;;;;;30.09;41.45;100575.25;6147492;23;6766;-75
2023/09/29 11:39:10;;;;;;;;;;;;;;;29.77;41.65;100570.00;6167890;23;7137;-75
2023/09/29 11:41:38;;;;;;;;;;;;;;;29.62;42.05;100563.38;6122066;23;7155;-74
2023/09/29 11:44:03;;;;;;;;;;;;;;;29.53;42.24;100575.09;6147935;23;6963;-75
2023/09/29 11:46:29;;;;;;;;;;;;;;;29.45;42.64;100572.66;6148597;23;6739;-74
2023/09/29 11:48:55;;;;;;;;;;;;;;;29.43;43.09;100577.06;6145936;23;6901;-74
2023/09/29 11:51:21;;;;;;;;;;;;;;;29.42;42.52;100575.34;6151146;23;6758;-75
2023/09/29 11:53:48;;;;;;;;;;;;;;;29.35;42.71;100579.94;6169181;23;6818;-74
2023/09/29 11:56:13;;;;;;;;;;;;;;;29.18;43.09;100580.41;6151065;23;6925;-75
2023/09/29 11:58:39;;;;;;;;;;;;;;;29.06;43.31;100578.06;6146513;23;7138;-74
2023/09/29 12:01:06;;;;;;;;;;;;;;;28.87;43.08;100578.56;6173697;23;7350;-74
2023/09/29 12:03:33;;;;;;;;;;;;;;;28.70;43.26;100578.97;6149223;23;6758;-73
2023/09/29 12:05:59;;;;;;;;;;;;;;;28.58;44.00;100590.66;6150219;23;7122;-74
2023/09/29 12:08:25;;;;;;;;;;;;;;;28.52;44.06;100602.22;6150442;23;8307;-74
2023/09/29 12:10:53;;;;;;;;;;;;;;;28.40;43.90;100606.03;6131309;23;7121;-85
2023/09/29 12:13:19;;;;;;;;;;;;;;;28.24;44.66;100616.03;6147550;23;7345;-83
2023/09/29 12:15:48;;;;;;;;;;;;;;;28.00;44.75;100625.31;6148211;23;7431;-84
2023/09/29 12:18:14;;;;;;;;;;;;;;;27.52;45.14;100626.25;6147993;23;7114;-85
2023/09/29 12:26:49;;;;;;;;;;;;;;;26.06;49.10;100655.63;6132038;23;6989;-78
2023/09/29 12:29:14;;;;;;;;;;;;;;;25.79;49.88;100652.44;6079450;23;7086;-75
2023/09/29 12:31:40;;;;;;;;;;;;;;;25.56;50.74;100647.44;6103225;23;6876;-79
2023/09/29 12:34:05;;;;;;;;;;;;;;;25.45;51.63;100655.38;6105964;23;6727;-75
2023/09/29 12:36:31;;;;;;;;;;;;;;;25.49;52.41;100664.94;6091432;23;6815;-72
2023/09/29 12:38:58;;;;;;;;;;;;;;;25.63;53.25;100662.22;6091820;23;6755;-74
2023/09/29 12:41:25;;;;;;;;;;;;;;;25.88;53.33;100657.59;6093394;23;6909;-72
2023/09/29 12:43:51;;;;;;;;;;;;;;;26.13;53.41;100656.44;6118388;23;6961;-74
2023/09/29 12:46:17;;;;;;;;;;;;;;;26.39;53.22;100652.59;6094394;23;6767;-73
2023/09/29 12:48:47;;;;;;;;;;;;;;;26.57;52.68;100657.59;6119017;23;6911;-73
2023/09/29 12:51:18;;;;;;;;;;;;;;;26.74;52.90;100654.69;6094749;23;6873;-73
2023/09/29 12:53:44;;;;;;;;;;;;;;;26.90;52.54;100651.88;6093209;23;6775;-74
2023/09/29 12:56:15;;;;;;;;;;;;;;;27.01;52.24;100642.03;6095092;23;6973;-73
2023/09/29 12:58:40;;;;;;;;;;;;;;;27.05;51.70;100647.28;6092900;23;6775;-73
2023/09/29 13:01:06;;;;;;;;;;;;;;;27.10;52.13;100658.56;6094214;23;8509;-74
2023/09/29 13:03:32;;;;;;;;;;;;;;;27.21;52.24;100651.34;6092904;23;7226;-74
2023/09/29 13:05:59;;;;;;;;;;;;;;;27.36;52.15;100658.09;6091328;23;7767;-73
2023/09/29 13:08:26;;;;;;;;;;;;;;;27.50;52.01;100655.22;6092656;23;6778;-73
2023/09/29 13:10:53;;;;;;;;;;;;;;;27.60;51.19;100655.97;6092071;23;6959;-73
2023/09/29 13:13:19;;;;;;;;;;;;;;;27.61;50.58;100662.97;6091101;23;7000;-75
2023/09/29 13:15:44;;;;;;;;;;;;;;;27.55;50.81;100656.06;6091806;23;6962;-73
2023/09/29 13:18:10;;;;;;;;;;;;;;;27.46;50.61;100661.44;6092677;23;6903;-73
2023/09/29 13:20:38;;;;;;;;;;;;;;;27.34;50.68;100659.91;6092561;23;6958;-73
2023/09/29 13:23:04;;;;;;;;;;;;;;;27.21;50.20;100664.50;6089522;23;6958;-74
2023/09/29 13:25:30;;;;;;;;;;;;;;;27.05;50.78;100663.91;6117922;23;6762;-74
2023/09/29 13:27:57;;;;;;;;;;;;;;;26.94;51.12;100671.97;6090546;23;6845;-74
2023/09/29 13:30:23;;;;;;;;;;;;;;;26.84;51.10;100673.84;6090684;23;7140;-75
2023/09/29 13:32:49;;;;;;;;;;;;;;;26.74;51.17;100680.13;6090586;23;6763;-74
2023/09/29 13:35:15;;;;;;;;;;;;;;;26.62;51.40;100668.03;6091739;23;6778;-76
2023/09/29 13:37:41;;;;;;;;;;;;;;;26.55;51.49;100672.53;6090960;23;6953;-75
2023/09/29 13:40:07;;;;;;;;;;;;;;;26.52;51.85;100675.19;6091446;23;6779;-75
2023/09/29 13:42:35;;;;;;;;;;;;;;;26.59;51.93;100670.72;6093776;23;6835;-73
2023/09/29 13:45:04;;;;;;;;;;;;;;;26.70;51.87;100678.44;6104368;23;7033;-77
2023/09/29 13:47:31;;;;;;;;;;;;;;;26.82;52.08;100678.25;6112180;23;6815;-76
2023/09/29 13:49:56;;;;;;;;;;;;;;;27.00;51.80;100677.13;6178711;23;6771;-76
2023/09/29 13:52:22;;;;;;;;;;;;;;;27.12;51.24;100664.66;6194681;23;6746;-75
2023/09/29 13:54:49;;;;;;;;;;;;;;;27.12;51.01;100675.19;6199259;23;7009;-75
2023/09/29 13:57:16;;;;;;;;;;;;;;;27.06;50.49;100680.56;6201447;23;6842;-76
2023/09/29 13:59:42;;;;;;;;;;;;;;;26.94;50.50;100698.25;6197602;23;6851;-77
2023/09/29 14:02:07;;;;;;;;;;;;;;;26.90;50.70;100701.84;6166193;23;6758;-78
2023/09/29 14:04:39;;;;;;;;;;;;;;;26.86;51.00;100698.34;6129165;23;6763;-76
2023/09/29 14:09:41;;;;;;;;;;;;;;;26.98;51.27;100704.34;6119725;23;6989;-84
2023/09/29 14:12:22;;;;;;;;;;;;;;;27.02;51.06;100714.78;6073562;23;6770;-86
2023/09/29 14:14:48;;;;;;;;;;;;;;;27.07;51.06;100712.09;6100403;23;6847;-83
2023/09/29 14:17:17;;;;;;;;;;;;;;;27.12;51.01;100717.28;6073259;23;6916;-83
2023/09/29 14:19:58;;;;;;;;;;;;;;;27.19;51.20;100718.91;6097839;23;6793;-84
2023/09/29 14:22:32;;;;;;;;;;;;;;;27.26;51.17;100715.31;6097102;23;6922;-84
2023/09/29 14:25:04;;;;;;;;;;;;;;;27.28;50.78;100723.16;6074490;23;7085;-84
2023/09/29 14:27:32;;;;;;;;;;;;;;;27.22;50.53;100737.28;6096288;23;6947;-85
2023/09/29 14:30:36;;;;;;;;;;;;;;;27.03;50.67;100734.94;6122588;23;6948;-86
2023/09/29 14:33:14;;;;;;;;;;;;;;;26.72;51.10;100745.88;6126231;23;11177;-83
2023/09/29 14:35:39;;;;;;;;;;;;;;;26.33;51.59;100758.63;6124086;23;6988;-85
2023/09/29 14:38:15;;;;;;;;;;;;;;;25.91;52.01;100767.81;6123953;23;6761;-86
2023/09/29 14:40:59;;;;;;;;;;;;;;;25.46;52.85;100777.81;6125239;23;7041;-88
2023/09/29 14:43:26;;;;;;;;;;;;;;;25.05;53.22;100791.22;6124056;23;6936;-86
2023/09/29 14:46:16;;;;;;;;;;;;;;;24.74;53.92;100791.34;6124869;23;6751;-87
2023/09/29 14:48:54;;;;;;;;;;;;;;;24.45;54.81;100809.78;6128866;23;6928;-89
2023/09/29 14:51:23;;;;;;;;;;;;;;;24.09;55.06;100797.63;6127503;23;6995;-87